Latest Weather Observations for Holmes Reef

IDQ60801

Issued at 1:32 am EST Saturday 4 July 2015 (issued every 30 minutes, with the page automatically refreshed every 10 minutes)

About weather observations | Map of weather stations | Latest weather observations for QLD | Other Formats
Station Details ID: 200732 Name: HOLMES REEF Lat: -16.47 Lon: 147.87 Height: 1.9 m
Data from the previous 72 hours. | See also: Recent months at Holmes Reef
Date/Time
EST
Temp
°C
App
Temp
°C
Dew
Point
Rel
Hum
%
Delta-T
°C
Wind Press
QNH
hPa
Press
MSL
hPa
Rain
since 9 am
mm
Dir
 
Spd
km/h
Gust
km/h
Spd
kts
Gust
kts
04/01:15am 23.4 - - - - SE 41 44 22 24 1015.9 1015.6 -
04/01:00am 23.3 - - - - SE 41 52 22 28 1016.0 - -
04/12:30am 23.4 - - - - SE 41 50 22 27 1016.1 - -
04/12:15am 23.4 - - - - SSE 33 - 18 - - 1016.1 -
 
Date/Time
EST
Temp
°C
App
Temp
°C
Dew
Point
Rel
Hum
%
Delta-T
°C
Wind Press
QNH
hPa
Press
MSL
hPa
Rain
since 9 am
mm
Dir
 
Spd
km/h
Gust
km/h
Spd
kts
Gust
kts
03/11:30pm 23.2 - - - - SSE 39 48 21 26 1016.9 - -
03/11:15pm 23.2 - - - - SSE 37 - 20 - - 1016.7 -
03/11:00pm 23.0 - - - - SSE 37 41 20 22 1017.2 - -
03/10:30pm 23.2 - - - - SSE 39 46 21 25 1017.4 - -
03/10:15pm 23.1 - - - - SSE 41 - 22 - - 1017.2 -
03/10:00pm 23.5 - - - - SSE 41 50 22 27 1017.6 - -
03/09:30pm 23.3 - - - - SSE 39 44 21 24 1017.6 - -
03/09:15pm 23.2 - - - - SE 37 - 20 - - 1017.3 -
03/09:00pm 23.2 - - - - SSE 39 46 21 25 1017.5 - -
03/08:30pm 23.2 - - - - SE 41 50 22 27 1017.2 - -
03/08:15pm 23.3 - - - - SE 41 - 22 - - 1016.8 -
03/08:00pm 23.4 - - - - SE 41 48 22 26 1016.9 - -
03/07:30pm 23.6 - - - - SE 41 48 22 26 1016.5 - -
03/07:15pm 23.5 - - - - SE 43 - 23 - - 1016.0 -
03/07:00pm 23.5 - - - - SE 41 52 22 28 1015.9 - -
03/06:30pm 23.5 - - - - SE 41 46 22 25 1015.6 - -
03/06:15pm 23.5 - - - - SE 43 - 23 - - 1015.2 -
03/06:00pm 23.6 - - - - SE 43 48 23 26 1015.4 - -
03/05:30pm 23.7 - - - - SE 41 48 22 26 1015.2 - -
03/05:15pm 23.9 - - - - SE 37 - 20 - - 1014.8 -
03/05:00pm 23.9 - - - - SE 37 43 20 23 1014.9 - -
03/04:30pm 24.1 - - - - SE 37 43 20 23 1014.8 - -
03/04:15pm 24.0 - - - - SE 35 - 19 - - 1014.4 -
03/04:00pm 24.0 - - - - SE 37 43 20 23 1014.7 - -
03/03:30pm 23.9 - - - - SE 39 46 21 25 1014.5 - -
03/03:15pm 24.0 - - - - SE 39 - 21 - - 1014.1 -
03/03:00pm 23.9 - - - - SE 39 44 21 24 1014.3 - -
03/02:30pm 24.1 - - - - SE 37 44 20 24 1014.7 - -
03/02:15pm 24.1 - - - - SE 39 - 21 - - 1014.5 -
03/02:00pm 24.1 - - - - SE 35 43 19 23 1015.0 - -
03/01:30pm 24.1 - - - - SE 37 43 20 23 1015.2 - -
03/01:15pm 24.2 - - - - SE 35 - 19 - - 1015.0 -
03/01:00pm 24.0 - - - - SE 37 44 20 24 1015.4 - -
03/12:30pm 24.1 - - - - SE 35 43 19 23 1015.8 - -
03/12:15pm 24.2 - - - - ESE 33 - 18 - - 1015.6 -
03/12:00pm 24.1 - - - - SE 35 41 19 22 1016.1 - -
03/11:30am 24.0 - - - - SE 35 41 19 22 1016.4 - -
03/11:15am 24.0 - - - - SE 37 - 20 - - 1016.2 -
03/11:00am 24.0 - - - - SE 37 43 20 23 1016.8 - -
03/10:30am 24.0 - - - - ESE 33 41 18 22 1017.1 - -
03/10:15am 24.2 - - - - SE 33 - 18 - - 1016.8 -
03/10:00am 24.2 - - - - ESE 33 39 18 21 1017.2 - -
03/09:30am 24.1 - - - - SE 35 41 19 22 1017.2 - -
03/09:15am 24.1 - - - - SE 35 - 19 - - 1016.9 -
03/09:00am 24.0 - - - - SE 33 43 18 23 1017.3 - -
03/08:30am 24.1 - - - - SE 35 44 19 24 1017.1 - -
03/08:15am 24.0 - - - - SE 37 - 20 - - 1016.7 -
03/08:00am 23.9 - - - - SE 37 41 20 22 1016.8 - -
03/07:30am 23.9 - - - - SE 37 44 20 24 1016.4 - -
03/07:15am 23.9 - - - - SE 39 - 21 - - 1015.9 -
03/07:00am 23.9 - - - - SE 41 46 22 25 1016.0 - -
03/06:30am 23.7 - - - - SE 39 44 21 24 1015.8 - -
03/06:15am 23.9 - - - - SE 39 - 21 - - 1015.4 -
03/06:00am 24.0 - - - - ESE 41 46 22 25 1015.6 - -
03/05:30am 23.9 - - - - SE 41 48 22 26 1015.3 - -
03/05:15am 23.8 - - - - SE 39 - 21 - - 1015.0 -
03/05:00am 23.9 - - - - SE 41 48 22 26 1015.2 - -
03/04:30am 23.9 - - - - SE 39 44 21 24 1015.2 - -
03/04:15am 24.1 - - - - SE 41 - 22 - - 1014.7 -
03/04:00am 24.0 - - - - SE 39 46 21 25 1015.1 - -
03/03:30am 23.9 - - - - SE 37 44 20 24 1015.3 - -
03/03:15am 23.7 - - - - SE 39 - 21 - - 1015.0 -
03/03:00am 23.8 - - - - SE 37 44 20 24 1015.5 - -
03/02:30am 23.9 - - - - SE 39 44 21 24 1015.7 - -
03/02:15am 24.0 - - - - SE 35 - 19 - - 1015.5 -
03/02:00am 23.8 - - - - SE 37 43 20 23 1015.9 - -
03/01:30am 24.1 - - - - SE 35 41 19 22 1016.2 - -
03/01:15am 24.0 - - - - SE 37 - 20 - - 1016.1 -
03/01:00am 24.1 - - - - SE 37 43 20 23 1016.5 - -
03/12:30am 24.2 - - - - SE 37 43 20 23 1016.8 - -
03/12:15am 24.1 - - - - SE 37 - 20 - - 1016.5 -
03/12:00am 24.0 - - - - SE 39 43 21 23 1017.0 - -
 
Date/Time
EST
Temp
°C
App
Temp
°C
Dew
Point
Rel
Hum
%
Delta-T
°C
Wind Press
QNH
hPa
Press
MSL
hPa
Rain
since 9 am
mm
Dir
 
Spd
km/h
Gust
km/h
Spd
kts
Gust
kts
02/11:30pm 24.1 - - - - SE 39 44 21 24 1017.2 - -
02/11:15pm 24.2 - - - - SE 35 - 19 - - 1017.0 -
02/11:00pm 24.2 - - - - SE 39 44 21 24 1017.4 - -
02/10:30pm 24.1 - - - - SE 37 44 20 24 1017.7 - -
02/10:15pm 24.3 - - - - SE 39 - 21 - - 1017.4 -
02/10:00pm 24.4 - - - - SE 37 43 20 23 1017.8 - -
02/09:30pm 24.3 - - - - SE 35 44 19 24 1017.9 - -
02/09:15pm 24.3 - - - - SE 35 - 19 - - 1017.6 -
02/09:00pm 24.6 - - - - SE 35 41 19 22 1017.9 - -
02/08:30pm 24.6 - - - - SE 37 43 20 23 1017.8 - -
02/08:15pm 24.4 - - - - SE 39 - 21 - - 1017.4 -
02/08:00pm 24.4 - - - - SE 39 46 21 25 1017.7 - -
02/07:30pm 24.5 - - - - SE 39 44 21 24 1017.4 - -
02/07:15pm 24.5 - - - - ESE 37 - 20 - - 1017.1 -
02/07:00pm 24.5 - - - - SE 37 43 20 23 1017.4 - -
02/06:30pm 24.4 - - - - SE 37 46 20 25 1017.0 - -
02/06:15pm 24.5 - - - - SE 37 - 20 - - 1016.6 -
02/06:00pm 24.6 - - - - SE 37 43 20 23 1016.7 - -
02/05:30pm 24.5 - - - - SE 39 44 21 24 1016.6 - -
02/05:15pm 24.5 - - - - SE 37 - 20 - - 1016.3 -
02/05:00pm 24.6 - - - - SE 37 43 20 23 1016.4 - -
02/04:30pm 24.6 - - - - SE 39 44 21 24 1016.3 - -
02/04:15pm 24.6 - - - - SE 37 - 20 - - 1016.0 -
02/04:00pm 24.5 - - - - SE 39 46 21 25 1016.2 - -
02/03:30pm 24.7 - - - - SE 39 44 21 24 1016.1 - -
02/03:15pm 24.6 - - - - SE 37 - 20 - - 1015.8 -
02/03:00pm 24.7 - - - - ESE 39 44 21 24 1016.2 - -
02/02:30pm 24.7 - - - - SE 39 46 21 25 1016.3 - -
02/02:15pm 24.6 - - - - SE 37 - 20 - - 1016.1 -
02/02:00pm 24.5 - - - - SE 37 43 20 23 1016.6 - -
02/01:30pm 24.9 - - - - ESE 35 43 19 23 1017.0 - -
02/01:15pm 24.8 - - - - ESE 37 - 20 - - 1016.9 -
02/01:00pm 24.7 - - - - ESE 37 43 20 23 1017.4 - -
02/12:30pm 24.7 - - - - ESE 41 46 22 25 1017.9 - -
02/12:15pm 24.7 - - - - ESE 39 - 21 - - 1017.8 -
02/12:00pm 24.6 - - - - SE 41 44 22 24 1018.1 - -
02/11:30am 24.6 - - - - ESE 39 44 21 24 1018.5 - -
02/11:15am 24.7 - - - - SE 39 - 21 - - 1018.4 -
02/11:00am 24.7 - - - - ESE 41 44 22 24 1018.9 - -
02/10:30am 24.7 - - - - ESE 43 50 23 27 1019.0 - -
02/10:15am 24.6 - - - - SE 41 - 22 - - 1018.7 -
02/10:00am 24.8 - - - - ESE 39 46 21 25 1019.2 - -
02/09:30am 24.6 - - - - ESE 37 43 20 23 1019.2 - -
02/09:15am 24.6 - - - - ESE 37 - 20 - - 1018.9 -
02/09:00am 24.7 - - - - ESE 37 44 20 24 1019.2 - -
02/08:30am 24.5 - - - - ESE 41 46 22 25 1019.0 - -
02/08:15am 24.6 - - - - ESE 39 - 21 - - 1018.5 -
02/08:00am 24.7 - - - - ESE 39 46 21 25 1018.7 - -
02/07:30am 24.4 - - - - ESE 41 46 22 25 1018.4 - -
02/07:15am 24.5 - - - - ESE 39 - 21 - - 1018.0 -
02/07:00am 24.4 - - - - ESE 39 44 21 24 1018.0 - -
02/06:30am 24.4 - - - - ESE 43 50 23 27 1017.6 - -
02/06:15am 24.3 - - - - SE 41 - 22 - - 1017.2 -
02/06:00am 24.5 - - - - ESE 39 44 21 24 1017.4 - -
02/05:30am 24.5 - - - - ESE 37 46 20 25 1017.4 - -
02/05:15am 24.4 - - - - ESE 37 - 20 - - 1016.9 -
02/05:00am 24.3 - - - - ESE 37 44 20 24 1017.1 - -
02/04:30am 24.4 - - - - ESE 41 50 22 27 1017.0 - -
02/04:15am 24.4 - - - - ESE 39 - 21 - - 1016.7 -
02/04:00am 24.4 - - - - SE 43 48 23 26 1016.9 - -
02/03:30am 24.4 - - - - SE 44 48 24 26 1016.8 - -
02/03:15am 24.4 - - - - ESE 44 - 24 - - 1016.4 -
02/03:00am 24.1 - - - - ESE 43 50 23 27 1016.8 - -
02/02:30am 24.3 - - - - SE 43 48 23 26 1017.0 - -
02/02:15am 24.1 - - - - SE 44 - 24 - - 1016.9 -
02/02:00am 24.3 - - - - ESE 41 50 22 27 1017.5 - -
02/01:30am 24.0 - - - - SE 35 41 19 22 1018.0 - -
02/01:15am 23.8 - - - - ESE 37 - 20 - - 1017.9 -
02/01:00am 23.7 - - - - ESE 41 46 22 25 1018.3 - -
02/12:30am 24.5 - - - - SE 37 43 20 23 1018.3 - -
02/12:15am 24.7 - - - - SE 35 - 19 - - 1018.2 -
02/12:00am 24.2 - - - - SE 35 44 19 24 1018.6 - -
 
Date/Time
EST
Temp
°C
App
Temp
°C
Dew
Point
Rel
Hum
%
Delta-T
°C
Wind Press
QNH
hPa
Press
MSL
hPa
Rain
since 9 am
mm
Dir
 
Spd
km/h
Gust
km/h
Spd
kts
Gust
kts
01/11:30pm 23.6 - - - - ESE 39 46 21 25 1018.7 - -
01/11:17pm 24.1 - - - - SE 39 46 21 25 1018.8 - -
01/11:15pm 24.5 - - - - SE 39 - 21 - - 1018.5 -
01/11:00pm 24.4 - - - - ESE 32 39 17 21 1019.1 - -
01/10:30pm 24.3 - - - - ESE 41 50 22 27 1019.1 - -
01/10:15pm 24.4 - - - - SE 39 - 21 - - 1018.9 -
01/10:00pm 23.8 - - - - SE 44 54 24 29 1019.3 - -
01/09:30pm 24.8 - - - - ESE 41 46 22 25 1019.1 - -
01/09:15pm 24.7 - - - - ESE 43 - 23 - - 1018.7 -
01/09:00pm 24.8 - - - - ESE 37 43 20 23 1018.9 - -
01/08:30pm 24.3 - - - - ESE 43 50 23 27 1018.8 - -
01/08:15pm 24.1 - - - - E 35 - 19 - - 1018.5 -
01/08:00pm 24.4 - - - - ESE 41 48 22 26 1018.5 - -
01/07:30pm 24.8 - - - - SE 37 43 20 23 1018.2 - -
01/07:15pm 24.6 - - - - ESE 37 - 20 - - 1017.7 -
01/07:00pm 24.8 - - - - SE 39 44 21 24 1017.9 - -
01/06:30pm 24.7 - - - - SE 43 50 23 27 1017.5 - -
01/06:15pm 24.7 - - - - ESE 39 - 21 - - 1017.1 -
01/06:00pm 24.7 - - - - SE 39 44 21 24 1017.2 - -
01/05:30pm 24.6 - - - - SE 39 44 21 24 1017.1 - -
01/05:15pm 24.9 - - - - SE 39 - 21 - - 1016.7 -
01/05:00pm 25.2 - - - - SE 39 44 21 24 1016.9 - -
01/04:30pm 24.5 - - - - SE 37 43 20 23 1016.6 - -
01/04:15pm 24.6 - - - - SE 39 - 21 - - 1016.2 -
01/04:00pm 24.9 - - - - SE 37 43 20 23 1016.5 - -
01/03:30pm 24.7 - - - - SE 41 44 22 24 1016.6 - -
01/03:15pm 24.9 - - - - SE 39 - 21 - - 1016.3 -
01/03:00pm 24.8 - - - - SE 41 46 22 25 1016.8 - -
01/02:30pm 24.7 - - - - SE 41 44 22 24 1016.9 - -
01/02:15pm 24.8 - - - - SE 39 - 21 - - 1016.6 -
01/02:00pm 24.6 - - - - SE 39 44 21 24 1017.0 - -
01/01:30pm 24.7 - - - - SE 41 46 22 25 1017.2 - -
01/01:15pm 24.7 - - - - SE 39 - 21 - - 1017.1 -
01/01:00pm 24.8 - - - - SE 39 44 21 24 1017.6 - -
01/12:30pm 24.8 - - - - SE 39 46 21 25 1018.0 - -
01/12:15pm 24.5 - - - - SE 41 - 22 - - 1017.9 -
01/12:00pm 24.5 - - - - SE 41 46 22 25 1018.3 - -
01/11:30am 24.6 - - - - SE 41 46 22 25 1018.7 - -
01/11:15am 24.7 - - - - SE 41 - 22 - - 1018.6 -
01/11:00am 24.7 - - - - SE 41 48 22 26 1019.0 - -
01/10:30am 24.6 - - - - SE 41 46 22 25 1019.1 - -
01/10:15am 24.6 - - - - SE 41 - 22 - - 1018.9 -
01/10:00am 24.6 - - - - SE 41 46 22 25 1019.3 - -
01/09:30am 24.7 - - - - ESE 43 46 23 25 1019.4 - -
01/09:15am 24.9 - - - - ESE 43 - 23 - - 1019.0 -
01/09:00am 24.7 - - - - ESE 41 46 22 25 1019.3 - -
01/08:30am 24.8 - - - - ESE 44 50 24 27 1019.1 - -
01/08:15am 24.6 - - - - ESE 44 - 24 - - 1018.6 -
01/08:00am 24.8 - - - - SE 43 50 23 27 1018.8 - -
01/07:30am 24.4 - - - - SE 43 54 23 29 1018.5 - -
01/07:15am 24.1 - - - - SE 44 - 24 - - 1018.2 -
01/07:00am 24.4 - - - - ESE 43 50 23 27 1018.3 - -
01/06:30am 24.6 - - - - SE 43 48 23 26 1018.2 - -
01/06:15am 24.7 - - - - SE 41 - 22 - - 1017.8 -
01/06:00am 24.6 - - - - SE 43 48 23 26 1017.9 - -
01/05:30am 24.7 - - - - SE 41 46 22 25 1017.6 - -
01/05:15am 23.7 - - - - SE 35 - 19 - - 1017.5 -
01/05:00am 23.7 - - - - ESE 39 44 21 24 1017.8 - -
01/04:30am 22.9 - - - - ESE 44 52 24 28 1017.8 - -
01/04:15am 23.5 - - - - ESE 46 - 25 - - 1017.4 -
01/04:00am 24.5 - - - - SE 39 46 21 25 1017.5 - -
01/03:30am 24.3 - - - - SE 41 46 22 25 1017.5 - -
01/03:15am 24.0 - - - - SE 41 - 22 - - 1017.2 -
01/03:00am 23.3 - - - - SE 48 61 26 33 1017.6 - -
01/02:30am 24.3 - - - - ESE 43 50 23 27 1017.5 - -
01/02:15am 23.9 - - - - SE 37 - 20 - - 1017.3 -
01/02:00am 24.2 - - - - ESE 41 48 22 26 1017.7 - -

Other Formats:

Comma delimited format used in spreadsheet applications
http://www.bom.gov.au/fwo/IDQ60801/IDQ60801.94289.axf

JavaScript Object Notation format (JSON) in row-major order
http://www.bom.gov.au/fwo/IDQ60801/IDQ60801.94289.json